Time;durP1;ratioP1;P1;durP2;ratioP2;P2;SDS_P1;SDS_P2;PMS_P1;PMS_P2;Temp;Humidity;BMP_temperature;BMP_pressure;BME280_temperature;BME280_humidity;BME280_pressure;Samples;Min_cycle;Max_cycle;Signal;HPM_P1;HPM_P2
2021/12/27 00:00:58;;;;;;;12.90;9.82;;;-1.90;99.90;;;;;;5093451;28;20595;-56
2021/12/27 00:03:25;;;;;;;15.20;10.13;;;-1.90;99.90;;;;;;5093450;28;20200;-56
2021/12/27 00:05:52;;;;;;;12.57;9.50;;;-1.90;99.90;;;;;;5093326;28;20207;-56
2021/12/27 00:08:19;;;;;;;10.98;9.13;;;-1.90;99.90;;;;;;5093742;28;20204;-56
2021/12/27 00:10:47;;;;;;;17.02;9.75;;;-1.80;99.90;;;;;;5093502;28;20231;-56
2021/12/27 00:13:14;;;;;;;11.10;8.98;;;-1.80;99.90;;;;;;5093978;28;20223;-56
2021/12/27 00:15:44;;;;;;;13.50;9.45;;;-1.80;99.90;;;;;;5093548;28;20258;-56
2021/12/27 00:18:11;;;;;;;15.07;9.90;;;-1.80;99.90;;;;;;5093409;28;20196;-56
2021/12/27 00:20:38;;;;;;;14.55;9.50;;;-1.80;99.90;;;;;;5093385;28;20220;-56
2021/12/27 00:23:05;;;;;;;12.00;8.88;;;-1.80;99.90;;;;;;5093359;28;20568;-56
2021/12/27 00:25:32;;;;;;;15.65;10.27;;;-1.80;99.90;;;;;;5096839;28;20200;-57
2021/12/27 00:27:59;;;;;;;13.77;9.93;;;-1.70;99.90;;;;;;5097558;28;20615;-55
2021/12/27 00:30:26;;;;;;;11.75;9.65;;;-1.70;99.90;;;;;;5097382;28;20353;-57
2021/12/27 00:32:55;;;;;;;13.00;9.20;;;-1.70;99.90;;;;;;5097357;28;20212;-56
2021/12/27 00:35:26;;;;;;;13.68;9.85;;;-1.70;99.90;;;;;;5096930;28;20220;-56
2021/12/27 00:37:53;;;;;;;13.85;9.60;;;-1.70;99.90;;;;;;5097301;28;20188;-55
2021/12/27 00:40:20;;;;;;;12.02;8.80;;;-1.60;99.90;;;;;;5096759;28;20238;-56
2021/12/27 00:42:49;;;;;;;13.63;9.70;;;-1.60;99.90;;;;;;5097173;28;20201;-56
2021/12/27 00:45:16;;;;;;;13.48;9.20;;;-1.60;99.90;;;;;;5096785;28;20199;-56
2021/12/27 00:47:43;;;;;;;14.70;10.05;;;-1.60;99.90;;;;;;5096716;28;20204;-56
2021/12/27 00:50:12;;;;;;;13.18;9.85;;;-1.60;99.90;;;;;;5096657;28;20228;-56
2021/12/27 00:52:40;;;;;;;12.05;8.80;;;-1.60;99.90;;;;;;5096951;28;20236;-56
2021/12/27 00:55:09;;;;;;;17.50;10.15;;;-1.70;99.90;;;;;;5096864;28;20216;-55
2021/12/27 00:57:36;;;;;;;11.35;9.55;;;-1.70;99.90;;;;;;5096879;28;20200;-56
2021/12/27 01:00:09;;;;;;;15.10;10.30;;;-1.60;99.90;;;;;;5096347;28;20220;-56
2021/12/27 01:02:37;;;;;;;12.00;10.25;;;-1.60;99.90;;;;;;5096465;28;20192;-56
2021/12/27 01:05:05;;;;;;;13.82;10.00;;;-1.60;99.90;;;;;;5096697;28;20580;-56
2021/12/27 01:07:33;;;;;;;13.85;10.15;;;-1.60;99.90;;;;;;5096626;28;20568;-56
2021/12/27 01:10:15;;;;;;;12.50;9.93;;;-1.70;99.90;;;;;;5096584;28;20225;-56
2021/12/27 01:12:50;;;;;;;15.73;10.82;;;-1.60;99.90;;;;;;5096648;28;20218;-57
2021/12/27 01:15:45;;;;;;;15.30;11.68;;;-1.70;99.90;;;;;;5096480;28;20208;-55
2021/12/27 01:18:12;;;;;;;12.88;9.73;;;-1.60;99.90;;;;;;5096445;28;20209;-55
2021/12/27 01:20:39;;;;;;;14.13;10.35;;;-1.70;99.90;;;;;;5096483;28;20248;-57
2021/12/27 01:23:08;;;;;;;14.55;11.30;;;-1.60;99.90;;;;;;5096387;28;20207;-56
2021/12/27 01:25:35;;;;;;;11.77;9.88;;;-1.60;99.90;;;;;;5096056;28;20203;-56
2021/12/27 01:28:03;;;;;;;15.63;10.52;;;-1.60;99.90;;;;;;5096058;28;20207;-56
2021/12/27 01:30:36;;;;;;;16.77;10.65;;;-1.60;99.90;;;;;;5096182;28;20299;-56
2021/12/27 01:33:04;;;;;;;14.35;10.55;;;-1.60;99.90;;;;;;5095893;28;20193;-56
2021/12/27 01:35:31;;;;;;;14.57;10.35;;;-1.60;99.90;;;;;;5095042;28;20220;-56
2021/12/27 01:37:58;;;;;;;13.60;10.18;;;-1.60;99.90;;;;;;5096153;28;20204;-56
2021/12/27 01:40:29;;;;;;;14.20;10.23;;;-1.60;99.90;;;;;;5095468;28;20224;-56
2021/12/27 01:43:05;;;;;;;13.77;10.98;;;-1.60;99.90;;;;;;5096269;28;20189;-54
2021/12/27 01:45:33;;;;;;;14.68;10.52;;;-1.60;99.90;;;;;;5095984;28;20184;-56
2021/12/27 01:48:00;;;;;;;12.73;10.00;;;-1.60;99.90;;;;;;5095914;28;20205;-56
2021/12/27 01:50:27;;;;;;;15.15;10.45;;;-1.60;99.90;;;;;;5096155;28;20224;-56
2021/12/27 01:52:54;;;;;;;14.85;11.65;;;-1.60;99.90;;;;;;5100570;28;20226;-56
2021/12/27 01:55:21;;;;;;;13.63;10.48;;;-1.60;99.90;;;;;;5098577;28;20217;-57
2021/12/27 01:57:50;;;;;;;13.02;10.52;;;-1.60;99.90;;;;;;5101344;28;20207;-56
2021/12/27 02:00:17;;;;;;;11.77;10.02;;;-1.60;99.90;;;;;;5097209;28;20578;-57
2021/12/27 02:02:45;;;;;;;13.65;11.10;;;-1.60;99.90;;;;;;5095922;28;20204;-57
2021/12/27 02:05:12;;;;;;;13.75;10.98;;;-1.60;99.90;;;;;;5095701;28;20192;-57
2021/12/27 02:07:40;;;;;;;13.18;9.88;;;-1.60;99.90;;;;;;5095474;28;20236;-57
2021/12/27 02:10:08;;;;;;;13.25;10.85;;;-1.50;99.90;;;;;;5095275;28;20625;-57
2021/12/27 02:12:35;;;;;;;16.25;10.68;;;-1.60;99.90;;;;;;5095899;28;20211;-55
2021/12/27 02:15:07;;;;;;;13.20;9.95;;;-1.60;99.90;;;;;;5095306;28;20217;-56
2021/12/27 02:17:35;;;;;;;12.68;9.43;;;-1.60;99.90;;;;;;5095074;28;20185;-56
2021/12/27 02:20:05;;;;;;;14.05;9.75;;;-1.60;99.90;;;;;;5094918;28;20263;-57
2021/12/27 02:22:36;;;;;;;14.00;10.70;;;-1.60;99.90;;;;;;5094951;28;20211;-57
2021/12/27 02:25:06;;;;;;;15.50;10.85;;;-1.60;99.90;;;;;;5095343;28;20188;-55
2021/12/27 02:27:33;;;;;;;12.15;9.52;;;-1.60;99.90;;;;;;5095193;28;20215;-56
2021/12/27 02:30:00;;;;;;;14.82;11.13;;;-1.60;99.90;;;;;;5095048;28;20231;-57
2021/12/27 02:32:27;;;;;;;14.55;11.10;;;-1.50;99.90;;;;;;5095131;28;20214;-56
2021/12/27 02:34:54;;;;;;;12.88;9.88;;;-1.60;99.90;;;;;;5094953;28;20299;-56
2021/12/27 02:37:23;;;;;;;15.50;10.60;;;-1.60;99.90;;;;;;5094680;28;20207;-56
2021/12/27 02:39:50;;;;;;;13.75;11.02;;;-1.50;99.90;;;;;;5094482;28;20604;-56
2021/12/27 02:42:18;;;;;;;10.90;9.50;;;-1.50;99.90;;;;;;5094826;28;20207;-56
2021/12/27 02:44:46;;;;;;;14.95;10.05;;;-1.50;99.90;;;;;;5094893;28;20585;-57
2021/12/27 02:47:15;;;;;;;14.18;10.73;;;-1.50;99.90;;;;;;5093790;28;20207;-56
2021/12/27 02:49:43;;;;;;;13.73;10.13;;;-1.50;99.90;;;;;;5094310;28;20224;-56
2021/12/27 02:52:10;;;;;;;13.45;10.35;;;-1.50;99.90;;;;;;5094657;28;20577;-56
2021/12/27 02:54:42;;;;;;;16.88;11.85;;;-1.50;99.90;;;;;;5094173;28;20734;-56
2021/12/27 02:57:10;;;;;;;13.63;10.15;;;-1.50;99.90;;;;;;5094295;28;20213;-57
2021/12/27 02:59:37;;;;;;;14.05;10.40;;;-1.50;99.90;;;;;;5094127;28;20223;-56
2021/12/27 03:02:05;;;;;;;15.70;10.55;;;-1.50;99.90;;;;;;5094488;28;20208;-55
2021/12/27 03:04:36;;;;;;;13.38;10.13;;;-1.50;99.90;;;;;;5094427;28;20196;-55
2021/12/27 03:07:04;;;;;;;15.35;10.70;;;-1.50;99.90;;;;;;5094119;28;20640;-55
2021/12/27 03:09:31;;;;;;;13.77;9.63;;;-1.50;99.90;;;;;;5094205;28;20228;-56
2021/12/27 03:12:00;;;;;;;14.07;11.05;;;-1.50;99.90;;;;;;5094251;28;20283;-56
2021/12/27 03:14:27;;;;;;;13.85;10.75;;;-1.50;99.90;;;;;;5093754;28;20723;-55
2021/12/27 03:16:54;;;;;;;14.70;9.48;;;-1.50;99.90;;;;;;5093691;28;20549;-56
2021/12/27 03:19:21;;;;;;;11.70;9.10;;;-1.50;99.90;;;;;;5094369;28;20228;-56
2021/12/27 03:21:48;;;;;;;15.35;10.45;;;-1.40;99.90;;;;;;5094093;28;20671;-56
2021/12/27 03:24:16;;;;;;;12.98;10.30;;;-1.40;99.90;;;;;;5093795;28;20208;-56
2021/12/27 03:26:43;;;;;;;12.95;10.65;;;-1.50;99.90;;;;;;5093883;28;20200;-55
2021/12/27 03:29:11;;;;;;;12.75;9.88;;;-1.40;99.90;;;;;;5093750;28;20259;-56
2021/12/27 03:31:38;;;;;;;11.32;9.02;;;-1.40;99.90;;;;;;5094037;28;20215;-55
2021/12/27 03:34:06;;;;;;;12.80;10.00;;;-1.40;99.90;;;;;;5094031;28;20204;-56
2021/12/27 03:36:38;;;;;;;15.57;10.32;;;-1.40;99.90;;;;;;5093945;28;20205;-56
2021/12/27 03:39:07;;;;;;;13.68;10.70;;;-1.40;99.90;;;;;;5093833;28;20235;-57
2021/12/27 03:41:34;;;;;;;15.60;12.27;;;-1.40;99.90;;;;;;5093914;28;20211;-57
2021/12/27 03:44:02;;;;;;;17.92;10.35;;;-1.30;99.90;;;;;;5093793;28;20209;-56
2021/12/27 03:46:32;;;;;;;13.88;10.25;;;-1.30;99.90;;;;;;5093618;28;20695;-57
2021/12/27 03:48:59;;;;;;;12.07;10.73;;;-1.30;99.90;;;;;;5093317;28;20204;-57
2021/12/27 03:51:26;;;;;;;13.45;9.95;;;-1.30;99.90;;;;;;5093619;28;20200;-57
2021/12/27 03:53:53;;;;;;;14.93;11.77;;;-1.30;99.90;;;;;;5093385;28;20200;-56
2021/12/27 03:56:23;;;;;;;16.60;10.95;;;-1.30;99.90;;;;;;5093254;28;20212;-54
2021/12/27 03:58:57;;;;;;;16.77;10.98;;;-1.30;99.90;;;;;;5092906;28;20242;-57
2021/12/27 04:01:26;;;;;;;15.15;10.07;;;-1.30;99.90;;;;;;5093555;28;20632;-56
2021/12/27 04:03:56;;;;;;;13.05;9.65;;;-1.30;99.90;;;;;;5093247;28;20204;-57
2021/12/27 04:09:07;;;;;;;13.82;10.80;;;-1.40;99.90;;;;;;5091509;27;20562;-55
2021/12/27 04:11:34;;;;;;;13.88;10.90;;;-1.30;99.90;;;;;;5090567;28;20203;-56
2021/12/27 04:14:02;;;;;;;13.80;11.40;;;-1.30;99.90;;;;;;5091014;28;20702;-56
2021/12/27 04:16:29;;;;;;;16.88;11.20;;;-1.30;99.90;;;;;;5090546;28;20676;-57
2021/12/27 04:18:56;;;;;;;17.70;12.07;;;-1.30;99.90;;;;;;5090787;28;20211;-57
2021/12/27 04:21:24;;;;;;;17.83;12.05;;;-1.30;99.90;;;;;;5097147;22;20312;-55
2021/12/27 04:23:51;;;;;;;13.68;11.05;;;-1.30;99.90;;;;;;5030523;28;20202;-54
2021/12/27 04:26:19;;;;;;;17.65;11.80;;;-1.30;99.90;;;;;;5030292;28;20675;-54
2021/12/27 04:28:46;;;;;;;17.40;12.07;;;-1.20;99.90;;;;;;5031533;28;20223;-54
2021/12/27 04:31:15;;;;;;;18.98;13.13;;;-1.20;99.90;;;;;;5029976;28;20226;-55
2021/12/27 04:33:42;;;;;;;13.93;11.00;;;-1.20;99.90;;;;;;5030053;28;20203;-54
2021/12/27 04:36:10;;;;;;;21.33;12.57;;;-1.20;99.90;;;;;;5030322;28;20203;-54
2021/12/27 04:38:38;;;;;;;17.58;13.35;;;-1.20;99.90;;;;;;5030255;28;20209;-54
2021/12/27 04:41:07;;;;;;;13.85;10.60;;;-1.20;99.90;;;;;;5029923;28;20218;-54
2021/12/27 04:43:35;;;;;;;18.65;13.20;;;-1.20;99.90;;;;;;5030118;28;20573;-54
2021/12/27 04:46:03;;;;;;;19.23;13.25;;;-1.20;99.90;;;;;;5030135;28;20210;-53
2021/12/27 04:48:30;;;;;;;18.50;13.15;;;-1.20;99.90;;;;;;5029702;28;20222;-53
2021/12/27 04:50:57;;;;;;;15.30;11.57;;;-1.20;99.90;;;;;;5029585;28;20209;-54
2021/12/27 04:53:24;;;;;;;17.77;14.00;;;-1.20;99.90;;;;;;5029652;28;20218;-52
2021/12/27 04:55:52;;;;;;;15.63;12.50;;;-1.20;99.90;;;;;;5029507;28;20202;-53
2021/12/27 04:58:22;;;;;;;18.50;13.32;;;-1.20;99.90;;;;;;5030459;28;20221;-53
2021/12/27 05:00:53;;;;;;;20.05;13.43;;;-1.20;99.90;;;;;;5029786;28;20277;-54
2021/12/27 05:03:20;;;;;;;19.25;13.90;;;-1.20;99.90;;;;;;5029854;28;20221;-54
2021/12/27 05:05:47;;;;;;;20.73;13.02;;;-1.20;99.90;;;;;;5030014;28;20210;-54
2021/12/27 05:08:14;;;;;;;17.75;14.75;;;-1.20;99.90;;;;;;5029919;28;20234;-54
2021/12/27 05:10:41;;;;;;;17.30;13.43;;;-1.20;99.90;;;;;;5029896;28;20210;-54
2021/12/27 05:13:08;;;;;;;19.40;14.73;;;-1.20;99.90;;;;;;5029805;28;20276;-54
2021/12/27 05:15:35;;;;;;;19.83;13.38;;;-1.20;99.90;;;;;;5030313;28;20694;-54
2021/12/27 05:18:04;;;;;;;20.60;14.90;;;-1.20;99.90;;;;;;5030449;28;20201;-54
2021/12/27 05:20:31;;;;;;;21.50;14.15;;;-1.30;99.90;;;;;;5016664;28;20211;-55
2021/12/27 05:22:58;;;;;;;14.18;12.32;;;-1.30;99.90;;;;;;5016663;28;20234;-55
2021/12/27 05:25:25;;;;;;;21.35;15.20;;;-1.30;99.90;;;;;;5016877;28;20203;-54
2021/12/27 05:27:52;;;;;;;18.95;13.95;;;-1.30;99.90;;;;;;5017547;28;20219;-54
2021/12/27 05:30:20;;;;;;;18.90;14.18;;;-1.30;99.90;;;;;;5018348;28;20213;-53
2021/12/27 05:32:48;;;;;;;17.33;13.15;;;-1.20;99.90;;;;;;5017885;28;20674;-54
2021/12/27 05:35:17;;;;;;;16.48;13.23;;;-1.20;99.90;;;;;;5018477;28;20634;-54
2021/12/27 05:37:45;;;;;;;21.35;14.52;;;-1.10;99.90;;;;;;5018451;28;20681;-54
2021/12/27 05:40:17;;;;;;;21.20;13.95;;;-1.10;99.90;;;;;;5018372;28;20670;-54
2021/12/27 05:42:44;;;;;;;19.02;14.25;;;-1.10;99.90;;;;;;5018543;28;20234;-54
2021/12/27 05:45:11;;;;;;;24.73;15.15;;;-1.10;99.90;;;;;;5019188;28;20211;-54
2021/12/27 05:47:39;;;;;;;19.05;14.90;;;-1.10;99.90;;;;;;5017623;28;20246;-54
2021/12/27 05:50:07;;;;;;;14.98;13.40;;;-1.10;99.90;;;;;;5016923;28;20202;-54
2021/12/27 05:52:36;;;;;;;20.50;14.90;;;-1.10;99.90;;;;;;5016844;28;20640;-54
2021/12/27 05:55:03;;;;;;;23.00;14.55;;;-1.10;99.90;;;;;;5016523;28;20214;-54
2021/12/27 05:57:30;;;;;;;18.73;15.18;;;-1.00;99.90;;;;;;5016040;28;20742;-53
2021/12/27 05:59:58;;;;;;;20.15;14.73;;;-1.00;99.90;;;;;;5016389;28;20230;-53
2021/12/27 06:02:25;;;;;;;18.70;14.30;;;-1.00;99.90;;;;;;5016406;28;20457;-53
2021/12/27 06:04:52;;;;;;;18.08;14.05;;;-1.00;99.90;;;;;;5016630;28;20199;-53
2021/12/27 06:07:19;;;;;;;18.70;13.82;;;-1.00;99.90;;;;;;5016520;28;20212;-53
2021/12/27 06:09:48;;;;;;;19.60;14.40;;;-1.10;99.90;;;;;;5016639;28;20199;-53
2021/12/27 06:12:15;;;;;;;20.90;14.98;;;-1.00;99.90;;;;;;5016990;28;20223;-53
2021/12/27 06:14:42;;;;;;;19.90;14.70;;;-1.00;99.90;;;;;;5015796;28;20546;-53
2021/12/27 06:17:09;;;;;;;18.80;14.45;;;-1.10;99.90;;;;;;5015965;28;20258;-53
2021/12/27 06:19:36;;;;;;;21.77;15.63;;;-1.00;99.90;;;;;;5015341;28;20572;-54
2021/12/27 06:22:04;;;;;;;19.80;13.48;;;-1.00;99.90;;;;;;5015639;28;20227;-54
2021/12/27 06:24:32;;;;;;;21.00;15.27;;;-1.00;99.90;;;;;;5015824;28;20210;-54
2021/12/27 06:27:00;;;;;;;17.42;13.48;;;-1.00;99.90;;;;;;5015518;28;20207;-54
2021/12/27 06:29:27;;;;;;;17.92;14.02;;;-1.00;99.90;;;;;;5015256;28;20222;-55
2021/12/27 06:31:54;;;;;;;19.75;14.60;;;-1.00;99.90;;;;;;5013799;28;20230;-54
2021/12/27 06:34:21;;;;;;;20.73;14.13;;;-1.10;99.90;;;;;;5015082;28;20203;-52
2021/12/27 06:36:48;;;;;;;16.65;13.40;;;-1.00;99.90;;;;;;5014868;28;20207;-53
2021/12/27 06:39:16;;;;;;;17.10;13.60;;;-1.10;99.90;;;;;;5014806;28;20225;-54
2021/12/27 06:41:43;;;;;;;19.38;14.45;;;-1.10;99.90;;;;;;5014778;28;20227;-54
2021/12/27 06:44:11;;;;;;;20.95;14.45;;;-1.10;99.90;;;;;;5014775;28;20211;-54
2021/12/27 06:46:38;;;;;;;20.65;15.38;;;-1.10;99.90;;;;;;5014396;28;20210;-54
2021/12/27 06:49:05;;;;;;;17.17;13.20;;;-1.10;99.90;;;;;;5014567;28;20234;-54
2021/12/27 06:51:32;;;;;;;16.30;13.98;;;-1.10;99.90;;;;;;5014636;28;20219;-54
2021/12/27 06:53:59;;;;;;;23.15;15.07;;;-1.10;99.90;;;;;;5014763;28;20206;-54
2021/12/27 06:56:26;;;;;;;19.75;14.85;;;-1.00;99.90;;;;;;5014456;28;20211;-54
2021/12/27 06:58:53;;;;;;;19.55;15.10;;;-1.00;99.90;;;;;;5014344;28;20714;-54
2021/12/27 07:01:22;;;;;;;23.95;15.02;;;-1.00;99.90;;;;;;5014144;28;20226;-54
2021/12/27 07:03:49;;;;;;;19.02;13.82;;;-1.00;99.90;;;;;;5014430;28;20202;-54
2021/12/27 07:06:16;;;;;;;17.35;14.18;;;-1.00;99.90;;;;;;5014352;28;20218;-54
2021/12/27 07:08:43;;;;;;;20.58;14.05;;;-1.00;99.90;;;;;;5014805;28;20226;-54
2021/12/27 07:11:10;;;;;;;18.30;14.18;;;-1.00;99.90;;;;;;5014824;28;20233;-54
2021/12/27 07:13:37;;;;;;;19.17;14.63;;;-1.00;99.90;;;;;;5014014;28;20199;-54
2021/12/27 07:16:05;;;;;;;17.45;14.75;;;-1.00;99.90;;;;;;5014282;28;20202;-54
2021/12/27 07:18:33;;;;;;;21.55;13.90;;;-1.00;99.90;;;;;;5014170;28;20269;-54
2021/12/27 07:21:00;;;;;;;19.00;14.95;;;-1.00;99.90;;;;;;5013663;28;20207;-54
2021/12/27 07:23:27;;;;;;;16.95;13.73;;;-1.00;99.90;;;;;;5014039;28;20191;-54
2021/12/27 07:25:54;;;;;;;17.70;14.70;;;-1.00;99.90;;;;;;5014101;28;20230;-54
2021/12/27 07:28:22;;;;;;;19.27;14.60;;;-1.00;99.90;;;;;;5013809;28;20227;-54
2021/12/27 07:30:49;;;;;;;17.05;13.68;;;-1.00;99.90;;;;;;5013965;28;20207;-54
2021/12/27 07:33:16;;;;;;;20.58;14.10;;;-1.00;99.90;;;;;;5013854;28;20207;-54
2021/12/27 07:35:47;;;;;;;20.35;15.70;;;-1.00;99.90;;;;;;5013901;28;20207;-54
2021/12/27 07:38:14;;;;;;;20.00;15.13;;;-0.90;99.90;;;;;;5013447;28;20226;-54
2021/12/27 07:40:42;;;;;;;20.33;14.25;;;-0.90;99.90;;;;;;5013813;28;20207;-54
2021/12/27 07:43:09;;;;;;;20.48;15.75;;;-0.90;99.90;;;;;;5013529;28;20214;-54
2021/12/27 07:45:36;;;;;;;22.27;15.68;;;-0.90;99.90;;;;;;5013730;28;20229;-54
2021/12/27 07:48:07;;;;;;;20.30;14.35;;;-0.90;99.90;;;;;;5013603;28;20203;-54
2021/12/27 07:50:34;;;;;;;22.27;15.85;;;-0.90;99.90;;;;;;5013667;28;20188;-54
2021/12/27 07:53:03;;;;;;;22.95;15.50;;;-0.90;99.90;;;;;;5013366;28;20261;-54
2021/12/27 07:55:30;;;;;;;19.67;15.82;;;-0.80;99.90;;;;;;5013174;28;20203;-54
2021/12/27 07:57:58;;;;;;;23.83;14.85;;;-0.80;99.90;;;;;;5013139;28;20199;-54
2021/12/27 08:00:26;;;;;;;19.45;15.10;;;-0.80;99.90;;;;;;5013718;28;20203;-55
2021/12/27 08:02:53;;;;;;;20.77;15.80;;;-0.70;99.90;;;;;;5013420;28;20227;-55
2021/12/27 08:05:21;;;;;;;28.20;16.35;;;-0.70;99.90;;;;;;5013595;28;20209;-55
2021/12/27 08:07:48;;;;;;;21.08;17.23;;;-0.70;99.90;;;;;;5013536;28;20210;-54
2021/12/27 08:10:17;;;;;;;18.20;15.48;;;-0.60;99.90;;;;;;5013373;28;20238;-55
2021/12/27 08:12:45;;;;;;;21.90;16.48;;;-0.60;99.90;;;;;;5013623;28;20246;-55
2021/12/27 08:15:13;;;;;;;19.75;15.48;;;-0.60;99.90;;;;;;5013401;28;20206;-55
2021/12/27 08:17:41;;;;;;;18.98;15.00;;;-0.50;99.90;;;;;;5013141;28;20210;-55
2021/12/27 08:20:09;;;;;;;19.45;14.50;;;-0.50;99.90;;;;;;5013184;28;20203;-55
2021/12/27 08:22:36;;;;;;;22.23;16.10;;;-0.50;99.90;;;;;;5013269;28;20235;-55
2021/12/27 08:25:07;;;;;;;22.50;15.73;;;-0.50;99.90;;;;;;5013408;28;20207;-55
2021/12/27 08:27:36;;;;;;;18.90;14.98;;;-0.50;99.90;;;;;;5013443;28;20619;-55
2021/12/27 08:30:05;;;;;;;21.13;16.30;;;-0.40;99.90;;;;;;5013414;28;20612;-55
2021/12/27 08:32:33;;;;;;;20.80;16.63;;;-0.40;99.90;;;;;;5013220;28;20231;-55
2021/12/27 08:35:01;;;;;;;19.95;15.45;;;-0.30;99.90;;;;;;5013273;28;20277;-55
2021/12/27 08:37:28;;;;;;;22.27;15.40;;;-0.30;99.90;;;;;;5012966;28;20207;-55
2021/12/27 08:39:55;;;;;;;21.60;16.92;;;-0.30;99.90;;;;;;5013235;28;20200;-56
2021/12/27 08:42:22;;;;;;;23.70;16.00;;;-0.20;99.90;;;;;;5013177;28;20230;-56
2021/12/27 08:44:51;;;;;;;24.48;15.88;;;-0.20;99.90;;;;;;5012994;28;20199;-55
2021/12/27 08:47:18;;;;;;;27.63;17.77;;;-0.10;99.90;;;;;;5012804;28;20679;-55
2021/12/27 08:49:46;;;;;;;22.05;16.58;;;-0.10;99.90;;;;;;5013163;28;20223;-55
2021/12/27 08:52:13;;;;;;;24.13;17.35;;;0.00;99.90;;;;;;5013453;28;20227;-55
2021/12/27 08:54:40;;;;;;;22.33;16.25;;;0.00;99.90;;;;;;5015329;28;20207;-55
2021/12/27 08:57:09;;;;;;;20.60;15.70;;;0.10;99.90;;;;;;5017421;28;20214;-55
2021/12/27 08:59:37;;;;;;;22.27;17.13;;;0.10;99.90;;;;;;5016675;28;20651;-55
2021/12/27 09:02:06;;;;;;;21.50;16.50;;;0.10;99.90;;;;;;5016382;28;20624;-55
2021/12/27 09:04:33;;;;;;;23.40;15.80;;;0.20;99.90;;;;;;5017715;28;20570;-55
2021/12/27 09:07:00;;;;;;;20.95;16.33;;;0.30;99.90;;;;;;5017371;28;20203;-54
2021/12/27 09:09:27;;;;;;;22.05;16.80;;;0.30;99.90;;;;;;5017219;28;20223;-56
2021/12/27 09:11:55;;;;;;;24.83;17.00;;;0.40;99.90;;;;;;5016385;28;20219;-55
2021/12/27 09:14:22;;;;;;;18.75;15.30;;;0.40;99.90;;;;;;5016492;28;20207;-53
2021/12/27 09:16:49;;;;;;;21.73;16.88;;;0.40;99.90;;;;;;5016348;28;20229;-56
2021/12/27 09:19:17;;;;;;;23.10;17.13;;;0.50;99.90;;;;;;5016260;28;20208;-55
2021/12/27 09:21:44;;;;;;;26.15;18.13;;;0.60;99.90;;;;;;5016169;28;20239;-55
2021/12/27 09:24:12;;;;;;;20.08;16.42;;;0.60;99.90;;;;;;5015949;28;20207;-55
2021/12/27 09:26:39;;;;;;;24.27;16.80;;;0.60;99.90;;;;;;5016002;28;20207;-55
2021/12/27 09:29:07;;;;;;;21.88;16.08;;;0.70;99.90;;;;;;5016278;28;20321;-55
2021/12/27 09:31:34;;;;;;;22.38;16.90;;;0.70;99.90;;;;;;5016122;28;20226;-55
2021/12/27 09:34:01;;;;;;;25.88;18.15;;;0.60;99.90;;;;;;5016164;28;20229;-55
2021/12/27 09:36:30;;;;;;;22.67;17.83;;;0.60;99.90;;;;;;5015762;28;20214;-55
2021/12/27 09:38:57;;;;;;;22.80;17.70;;;0.50;99.90;;;;;;5015734;28;20207;-55
2021/12/27 09:41:25;;;;;;;23.20;17.67;;;0.50;99.90;;;;;;5016167;28;20223;-55
2021/12/27 09:43:53;;;;;;;26.40;16.58;;;0.50;99.90;;;;;;5016262;28;20210;-55
2021/12/27 09:46:20;;;;;;;22.95;17.15;;;0.50;99.90;;;;;;5016364;28;20203;-55
2021/12/27 09:48:49;;;;;;;21.88;16.67;;;0.50;99.90;;;;;;5015784;28;20226;-55
2021/12/27 09:51:17;;;;;;;30.13;18.40;;;0.50;99.90;;;;;;5015570;28;20222;-56
2021/12/27 09:53:46;;;;;;;30.08;18.73;;;0.60;99.90;;;;;;5015872;28;20230;-55
2021/12/27 09:56:14;;;;;;;23.10;16.88;;;0.60;99.90;;;;;;5016342;28;20213;-54
2021/12/27 09:58:41;;;;;;;24.02;18.45;;;0.70;99.90;;;;;;5015750;28;20206;-54
2021/12/27 10:01:09;;;;;;;25.30;17.85;;;0.70;99.90;;;;;;5015443;28;20222;-54
2021/12/27 10:03:46;;;;;;;21.23;17.50;;;0.80;99.90;;;;;;5015961;28;20237;-56
2021/12/27 10:06:14;;;;;;;25.10;17.73;;;0.80;99.90;;;;;;5017642;28;20187;-54
2021/12/27 10:08:46;;;;;;;21.67;16.88;;;0.90;99.90;;;;;;5017440;28;20230;-55
2021/12/27 10:11:18;;;;;;;22.75;17.67;;;1.00;99.90;;;;;;5017362;28;20230;-55
2021/12/27 10:13:59;;;;;;;22.13;17.98;;;1.00;99.90;;;;;;5018290;28;20214;-55
2021/12/27 10:16:26;;;;;;;22.05;17.80;;;1.10;99.90;;;;;;5017564;28;20206;-55
2021/12/27 10:18:55;;;;;;;21.58;16.65;;;1.10;99.90;;;;;;5018790;28;20207;-55
2021/12/27 10:21:22;;;;;;;24.90;18.60;;;1.20;99.90;;;;;;5017919;28;20263;-55
2021/12/27 10:24:00;;;;;;;21.50;17.45;;;1.20;99.90;;;;;;5018213;28;20572;-54
2021/12/27 10:26:29;;;;;;;23.25;15.98;;;1.30;99.90;;;;;;5017669;28;20199;-55
2021/12/27 10:29:07;;;;;;;23.20;18.13;;;1.30;99.90;;;;;;5050668;22;20234;-61
2021/12/27 10:31:53;;;;;;;25.13;17.90;;;1.40;99.90;;;;;;5039425;28;20193;-61
2021/12/27 10:34:23;;;;;;;25.58;16.50;;;1.40;99.90;;;;;;5038906;28;20186;-61
2021/12/27 10:37:06;;;;;;;22.85;17.33;;;1.50;99.90;;;;;;5037277;28;20202;-59
2021/12/27 10:39:50;;;;;;;25.05;18.30;;;1.50;99.90;;;;;;5035983;28;20698;-60
2021/12/27 10:42:19;;;;;;;21.13;16.85;;;1.50;99.90;;;;;;5035817;28;20630;-61
2021/12/27 10:44:48;;;;;;;24.60;18.42;;;1.60;99.90;;;;;;5036166;28;20217;-61
2021/12/27 10:47:49;;;;;;;25.45;17.77;;;1.60;99.90;;;;;;5035694;28;20214;-60
2021/12/27 10:50:18;;;;;;;25.30;17.65;;;1.60;99.90;;;;;;4974602;28;20313;-60
2021/12/27 10:52:57;;;;;;;24.80;18.65;;;1.60;99.90;;;;;;4974151;28;20574;-61
2021/12/27 10:55:32;;;;;;;23.98;16.60;;;1.50;99.90;;;;;;5007037;28;20202;-61
2021/12/27 10:58:15;;;;;;;21.83;17.05;;;1.50;99.90;;;;;;5034421;28;20240;-61
2021/12/27 11:00:44;;;;;;;22.90;17.38;;;1.60;99.90;;;;;;5034677;28;20233;-59
2021/12/27 11:03:23;;;;;;;23.13;18.60;;;1.60;99.90;;;;;;5034484;28;20202;-60
2021/12/27 11:05:51;;;;;;;22.13;17.23;;;1.60;99.90;;;;;;5034300;28;20653;-61
2021/12/27 11:08:18;;;;;;;22.35;18.35;;;1.60;99.90;;;;;;5034419;28;20229;-61
2021/12/27 11:10:47;;;;;;;24.92;18.25;;;1.60;99.90;;;;;;5034363;28;20717;-60
2021/12/27 11:13:14;;;;;;;21.52;17.38;;;1.70;99.90;;;;;;5034290;28;20206;-61
2021/12/27 11:15:42;;;;;;;22.40;17.05;;;1.70;99.90;;;;;;5034296;28;20209;-61
2021/12/27 11:18:12;;;;;;;22.10;17.38;;;1.70;99.90;;;;;;5034130;28;20229;-61
2021/12/27 11:20:44;;;;;;;27.23;18.30;;;1.70;99.90;;;;;;5034446;28;20206;-61
2021/12/27 11:23:12;;;;;;;24.95;18.20;;;1.70;99.90;;;;;;5036369;28;20253;-61
2021/12/27 11:25:41;;;;;;;22.08;16.73;;;1.80;99.90;;;;;;5038573;28;20213;-60
2021/12/27 11:28:26;;;;;;;25.98;18.33;;;1.90;99.90;;;;;;5040521;28;20210;-61
2021/12/27 11:30:54;;;;;;;21.38;16.90;;;2.00;99.90;;;;;;5037998;28;20584;-62
2021/12/27 11:33:22;;;;;;;20.27;16.30;;;2.10;99.90;;;;;;5036140;28;20198;-61
2021/12/27 11:36:08;;;;;;;23.75;16.73;;;2.20;99.90;;;;;;5038061;28;20202;-61
2021/12/27 11:38:38;;;;;;;21.25;16.55;;;2.30;99.90;;;;;;5039342;28;20724;-61
2021/12/27 11:41:07;;;;;;;23.27;17.50;;;2.30;99.90;;;;;;5036222;28;20183;-59
2021/12/27 11:44:00;;;;;;;25.27;19.50;;;2.40;99.90;;;;;;5034628;28;20667;-60
2021/12/27 11:46:30;;;;;;;22.35;18.02;;;2.40;99.90;;;;;;5020139;28;20282;-60
2021/12/27 11:48:59;;;;;;;25.90;18.80;;;2.40;99.90;;;;;;5034585;28;20230;-60
2021/12/27 11:51:32;;;;;;;22.65;16.90;;;2.30;99.90;;;;;;5033493;28;20630;-61
2021/12/27 11:54:00;;;;;;;19.27;15.95;;;2.40;99.90;;;;;;5033473;28;20209;-60
2021/12/27 11:56:48;;;;;;;25.58;17.55;;;2.40;99.90;;;;;;5033661;28;20210;-61
2021/12/27 11:59:46;;;;;;;24.52;17.67;;;2.50;99.90;;;;;;5033473;28;20299;-62
2021/12/27 12:02:27;;;;;;;21.92;16.88;;;2.60;99.90;;;;;;4972447;28;20193;-61
2021/12/27 12:04:56;;;;;;;21.95;17.60;;;2.60;99.90;;;;;;5025856;28;20202;-59
2021/12/27 12:07:49;;;;;;;23.00;17.80;;;2.60;99.90;;;;;;5033837;28;20289;-60
2021/12/27 12:10:17;;;;;;;23.38;18.60;;;2.50;99.90;;;;;;5033588;28;20280;-60
2021/12/27 12:13:21;;;;;;;22.75;17.63;;;2.50;99.90;;;;;;5033724;28;20308;-59
2021/12/27 12:16:00;;;;;;;20.58;17.02;;;2.50;99.90;;;;;;5033804;28;20183;-60
2021/12/27 12:18:28;;;;;;;20.00;15.82;;;2.50;99.90;;;;;;5034063;28;20264;-60
2021/12/27 12:20:56;;;;;;;18.52;16.15;;;2.50;99.90;;;;;;5034644;28;20209;-60
2021/12/27 12:23:24;;;;;;;19.63;15.95;;;2.60;99.90;;;;;;5039861;28;20289;-61
2021/12/27 12:25:59;;;;;;;22.40;17.50;;;2.60;99.90;;;;;;5041101;28;20257;-61
2021/12/27 12:28:27;;;;;;;24.05;17.90;;;2.60;99.90;;;;;;5040606;28;20236;-59
2021/12/27 12:30:55;;;;;;;20.63;17.58;;;2.60;99.90;;;;;;5045572;28;20217;-60
2021/12/27 12:33:25;;;;;;;21.13;16.40;;;2.60;99.90;;;;;;5041411;28;20202;-59
2021/12/27 12:35:55;;;;;;;26.85;18.40;;;2.60;99.90;;;;;;5037886;28;20194;-60
2021/12/27 12:38:25;;;;;;;23.15;17.30;;;2.70;99.90;;;;;;5038513;28;20257;-60
2021/12/27 12:41:08;;;;;;;23.38;17.58;;;2.70;99.90;;;;;;5037644;28;20690;-61
2021/12/27 12:43:41;;;;;;;22.75;18.17;;;2.70;99.90;;;;;;5037512;28;20186;-61